Time;durP1;ratioP1;P1;durP2;ratioP2;P2;SDS_P1;SDS_P2;PMS_P1;PMS_P2;Temp;Humidity;BMP_temperature;BMP_pressure;BME280_temperature;BME280_humidity;BME280_pressure;Samples;Min_cycle;Max_cycle;Signal;HPM_P1;HPM_P2
2023/01/30 00:01:39;;;;;;;21.60;14.35;;;;;;;;;;4992431;28;20069;-75
2023/01/30 00:04:05;;;;;;;22.27;14.77;;;;;;;;;;4985831;28;20046;-75
2023/01/30 00:06:32;;;;;;;24.40;15.55;;;;;;;;;;4959833;28;20050;-75
2023/01/30 00:08:59;;;;;;;25.17;15.65;;;;;;;;;;4992436;28;20384;-75
2023/01/30 00:11:28;;;;;;;27.85;16.73;;;;;;;;;;4992698;28;20042;-75
2023/01/30 00:13:55;;;;;;;26.23;15.85;;;;;;;;;;4974408;28;20046;-76
2023/01/30 00:16:22;;;;;;;28.10;15.95;;;;;;;;;;4976346;28;20129;-75
2023/01/30 00:18:49;;;;;;;27.35;16.92;;;;;;;;;;4970927;28;20112;-76
2023/01/30 00:21:16;;;;;;;27.02;16.77;;;;;;;;;;4992726;28;20591;-76
2023/01/30 00:23:43;;;;;;;26.70;16.13;;;;;;;;;;4991819;28;20426;-76
2023/01/30 00:26:10;;;;;;;26.13;16.25;;;;;;;;;;4992499;28;20181;-76
2023/01/30 00:28:38;;;;;;;24.83;14.57;;;;;;;;;;4960015;28;20061;-76
2023/01/30 00:31:05;;;;;;;27.10;16.20;;;;;;;;;;4976371;28;20050;-75
2023/01/30 00:33:32;;;;;;;29.80;17.02;;;;;;;;;;4975858;28;20046;-76
2023/01/30 00:36:00;;;;;;;24.80;15.95;;;;;;;;;;4988883;28;20618;-75
2023/01/30 00:38:27;;;;;;;25.27;15.38;;;;;;;;;;4975823;28;20056;-75
2023/01/30 00:40:54;;;;;;;27.88;15.88;;;;;;;;;;4976460;28;20104;-76
2023/01/30 00:49:07;;;;;;;26.65;15.45;;;;;;;;;;4994767;28;20073;-74
2023/01/30 00:51:34;;;;;;;28.88;18.15;;;;;;;;;;4976038;28;20472;-73
2023/01/30 00:54:00;;;;;;;26.85;15.73;;;;;;;;;;4975886;28;20438;-74
2023/01/30 00:56:27;;;;;;;27.60;15.90;;;;;;;;;;5008191;28;20045;-73
2023/01/30 00:58:54;;;;;;;26.40;15.30;;;;;;;;;;4975728;28;20136;-74
2023/01/30 01:01:20;;;;;;;26.17;16.60;;;;;;;;;;4991778;28;20050;-75
2023/01/30 01:03:47;;;;;;;26.55;16.20;;;;;;;;;;4959996;28;20062;-74
2023/01/30 01:06:14;;;;;;;29.65;17.70;;;;;;;;;;4959964;28;20062;-74
2023/01/30 01:08:40;;;;;;;26.52;16.83;;;;;;;;;;4991833;28;20052;-75
2023/01/30 01:11:07;;;;;;;25.90;16.45;;;;;;;;;;5007953;28;20053;-75
2023/01/30 01:13:34;;;;;;;26.73;16.92;;;;;;;;;;4976211;28;20115;-75
2023/01/30 01:16:01;;;;;;;23.50;14.77;;;;;;;;;;4976546;28;20050;-75
2023/01/30 01:18:27;;;;;;;25.42;16.02;;;;;;;;;;4977770;28;20054;-74
2023/01/30 01:20:54;;;;;;;25.05;16.13;;;;;;;;;;4972513;28;20051;-75
2023/01/30 01:23:21;;;;;;;23.80;15.23;;;;;;;;;;4976884;28;20038;-75
2023/01/30 01:25:48;;;;;;;21.83;15.52;;;;;;;;;;5000386;28;20073;-74
2023/01/30 01:28:17;;;;;;;22.67;15.43;;;;;;;;;;4982346;28;20069;-74
2023/01/30 01:30:43;;;;;;;26.70;15.73;;;;;;;;;;4993250;28;20050;-76
2023/01/30 01:33:10;;;;;;;26.52;15.70;;;;;;;;;;4995726;28;20129;-75
2023/01/30 01:35:40;;;;;;;23.75;15.25;;;;;;;;;;4992206;28;20507;-75
2023/01/30 01:38:07;;;;;;;23.08;14.35;;;;;;;;;;4973522;28;20082;-75
2023/01/30 01:43:21;;;;;;;22.48;14.80;;;;;;;;;;4972556;28;20114;-74
2023/01/30 01:45:52;;;;;;;21.95;13.25;;;;;;;;;;4979687;28;20057;-74
2023/01/30 01:48:34;;;;;;;23.77;14.93;;;;;;;;;;4979076;28;20046;-75
2023/01/30 01:51:12;;;;;;;23.45;15.05;;;;;;;;;;4977686;28;20057;-75
2023/01/30 01:53:48;;;;;;;28.35;15.77;;;;;;;;;;4994719;28;20061;-75
2023/01/30 01:56:15;;;;;;;24.80;15.10;;;;;;;;;;4965087;28;20061;-75
2023/01/30 01:58:46;;;;;;;23.27;15.00;;;;;;;;;;4976264;28;20120;-76
2023/01/30 02:01:13;;;;;;;22.33;14.23;;;;;;;;;;4978749;28;20057;-75
2023/01/30 02:03:41;;;;;;;25.27;15.30;;;;;;;;;;4978955;28;20494;-75
2023/01/30 02:06:08;;;;;;;21.33;13.27;;;;;;;;;;4979265;28;20057;-75
2023/01/30 02:08:37;;;;;;;22.85;13.75;;;;;;;;;;4978556;28;20493;-75
2023/01/30 02:11:07;;;;;;;21.40;14.75;;;;;;;;;;4978708;28;20061;-75
2023/01/30 02:13:34;;;;;;;22.10;14.23;;;;;;;;;;4995176;28;20510;-75
2023/01/30 02:16:02;;;;;;;20.67;13.70;;;;;;;;;;4979310;28;20061;-74
2023/01/30 02:18:30;;;;;;;22.58;14.55;;;;;;;;;;4974604;28;20076;-75
2023/01/30 02:21:03;;;;;;;21.95;13.82;;;;;;;;;;4975748;28;20061;-75
2023/01/30 02:23:43;;;;;;;24.40;14.82;;;;;;;;;;4990897;28;20054;-75
2023/01/30 02:26:34;;;;;;;23.02;13.77;;;;;;;;;;4995922;28;20417;-75
2023/01/30 02:29:07;;;;;;;19.77;13.85;;;;;;;;;;4994311;28;20129;-74
2023/01/30 02:31:37;;;;;;;20.33;13.88;;;;;;;;;;4986988;28;20518;-75
2023/01/30 02:34:10;;;;;;;22.77;14.32;;;;;;;;;;4978738;28;20046;-76
2023/01/30 02:36:52;;;;;;;23.40;14.88;;;;;;;;;;4975308;28;20434;-76
2023/01/30 02:39:46;;;;;;;25.23;15.85;;;;;;;;;;4994091;28;20513;-76
2023/01/30 02:42:19;;;;;;;23.33;14.75;;;;;;;;;;4990304;28;20046;-76
2023/01/30 02:45:23;;;;;;;24.98;14.70;;;;;;;;;;4975841;28;20085;-76
2023/01/30 02:47:58;;;;;;;23.50;14.32;;;;;;;;;;4956554;28;20059;-76
2023/01/30 02:50:32;;;;;;;23.92;15.02;;;;;;;;;;4980284;28;20129;-76
2023/01/30 02:52:58;;;;;;;21.92;14.90;;;;;;;;;;4978893;28;20038;-75
2023/01/30 02:55:27;;;;;;;22.02;13.80;;;;;;;;;;4966007;28;20141;-74
2023/01/30 02:57:54;;;;;;;25.05;15.32;;;;;;;;;;4984333;28;20068;-75
2023/01/30 03:00:45;;;;;;;26.42;15.50;;;;;;;;;;4982914;28;20054;-76
2023/01/30 03:03:35;;;;;;;22.80;14.50;;;;;;;;;;4979236;28;20039;-76
2023/01/30 03:06:21;;;;;;;20.60;13.98;;;;;;;;;;4979000;28;20053;-75
2023/01/30 03:09:17;;;;;;;22.67;14.35;;;;;;;;;;5001365;28;20061;-76
2023/01/30 03:11:50;;;;;;;24.77;15.23;;;;;;;;;;4963178;28;20077;-75
2023/01/30 03:14:22;;;;;;;21.58;13.90;;;;;;;;;;5021689;28;20050;-75
2023/01/30 03:16:49;;;;;;;22.08;14.18;;;;;;;;;;5004015;28;20050;-74
2023/01/30 03:19:16;;;;;;;30.88;15.13;;;;;;;;;;4987457;28;20057;-75
2023/01/30 03:21:43;;;;;;;23.52;14.38;;;;;;;;;;4981858;28;20065;-74
2023/01/30 03:24:11;;;;;;;21.77;13.48;;;;;;;;;;5013748;28;20642;-75
2023/01/30 03:26:42;;;;;;;23.23;14.45;;;;;;;;;;4997462;28;20050;-75
2023/01/30 03:29:09;;;;;;;19.50;13.32;;;;;;;;;;4997607;28;20552;-74
2023/01/30 03:31:35;;;;;;;20.92;13.48;;;;;;;;;;4982224;28;20513;-74
2023/01/30 03:34:02;;;;;;;21.73;13.30;;;;;;;;;;4981904;28;20046;-74
2023/01/30 03:36:29;;;;;;;21.27;12.55;;;;;;;;;;4983180;28;20533;-74
2023/01/30 03:38:56;;;;;;;19.27;11.98;;;;;;;;;;4996338;28;20106;-75
2023/01/30 03:41:23;;;;;;;19.08;11.82;;;;;;;;;;4988362;28;20087;-76
2023/01/30 03:43:49;;;;;;;21.42;12.65;;;;;;;;;;4977793;28;20049;-76
2023/01/30 03:46:16;;;;;;;20.38;11.50;;;;;;;;;;4978413;28;20061;-75
2023/01/30 03:48:43;;;;;;;20.13;12.05;;;;;;;;;;4999581;28;20058;-75
2023/01/30 03:51:09;;;;;;;17.98;11.55;;;;;;;;;;5013014;28;20491;-75
2023/01/30 03:53:36;;;;;;;16.20;11.05;;;;;;;;;;4994123;28;20061;-76
2023/01/30 03:56:03;;;;;;;18.88;12.30;;;;;;;;;;4998102;28;20053;-76
2023/01/30 03:58:30;;;;;;;14.75;9.73;;;;;;;;;;4996824;28;20099;-75
2023/01/30 04:00:56;;;;;;;18.05;10.70;;;;;;;;;;4976272;28;20122;-76
2023/01/30 04:03:23;;;;;;;18.02;10.80;;;;;;;;;;4989391;28;20046;-75
2023/01/30 04:05:50;;;;;;;16.75;11.15;;;;;;;;;;4974091;28;20491;-76
2023/01/30 04:08:17;;;;;;;15.05;10.93;;;;;;;;;;5008710;28;20053;-75
2023/01/30 04:10:43;;;;;;;15.10;10.40;;;;;;;;;;4993030;28;20057;-75
2023/01/30 04:13:10;;;;;;;16.00;10.20;;;;;;;;;;4976293;28;20041;-76
2023/01/30 04:15:37;;;;;;;15.73;11.10;;;;;;;;;;4976459;28;20646;-75
2023/01/30 04:18:03;;;;;;;16.30;10.38;;;;;;;;;;4991300;28;20125;-76
2023/01/30 04:20:30;;;;;;;16.75;10.73;;;;;;;;;;4993804;28;20054;-75
2023/01/30 04:22:57;;;;;;;14.35;10.13;;;;;;;;;;4974349;28;20049;-75
2023/01/30 04:25:30;;;;;;;16.30;10.20;;;;;;;;;;4989153;28;20066;-75
2023/01/30 04:27:56;;;;;;;16.73;10.48;;;;;;;;;;4976652;28;20054;-76
2023/01/30 04:30:23;;;;;;;14.25;9.60;;;;;;;;;;4992506;28;20461;-76
2023/01/30 04:32:50;;;;;;;14.07;9.40;;;;;;;;;;4976552;28;20637;-76
2023/01/30 04:35:17;;;;;;;13.45;9.38;;;;;;;;;;4992462;28;20041;-75
2023/01/30 04:37:44;;;;;;;14.95;9.05;;;;;;;;;;4976356;28;20788;-76
2023/01/30 04:40:11;;;;;;;14.48;9.38;;;;;;;;;;4976513;28;20057;-75
2023/01/30 04:42:38;;;;;;;15.18;9.57;;;;;;;;;;5007683;28;20100;-75
2023/01/30 04:45:05;;;;;;;13.23;9.05;;;;;;;;;;4940648;28;20078;-77
2023/01/30 04:47:32;;;;;;;11.45;8.15;;;;;;;;;;4941746;28;20061;-76
2023/01/30 04:49:59;;;;;;;12.18;8.65;;;;;;;;;;4941685;28;20058;-75
2023/01/30 04:52:25;;;;;;;16.35;8.70;;;;;;;;;;4973938;28;20145;-75
2023/01/30 04:54:55;;;;;;;12.82;8.73;;;;;;;;;;4958096;28;20469;-76
2023/01/30 04:57:22;;;;;;;13.57;8.68;;;;;;;;;;4974545;28;20043;-74
2023/01/30 04:59:49;;;;;;;12.43;8.75;;;;;;;;;;4975721;28;20046;-74
2023/01/30 05:02:15;;;;;;;12.45;8.88;;;;;;;;;;4960785;28;20054;-75
2023/01/30 05:04:42;;;;;;;12.07;7.68;;;;;;;;;;4977137;28;20420;-75
2023/01/30 05:07:10;;;;;;;12.32;7.85;;;;;;;;;;4977070;28;20056;-75
2023/01/30 05:09:37;;;;;;;12.27;8.40;;;;;;;;;;4977374;28;20054;-74
2023/01/30 05:12:04;;;;;;;11.80;8.13;;;;;;;;;;4945518;28;20069;-75
2023/01/30 05:14:30;;;;;;;11.57;7.82;;;;;;;;;;4945969;28;20050;-75
2023/01/30 05:16:57;;;;;;;12.30;8.38;;;;;;;;;;4945695;28;20542;-74
2023/01/30 05:19:24;;;;;;;13.48;8.82;;;;;;;;;;4964784;28;20069;-75
2023/01/30 05:21:51;;;;;;;12.55;7.97;;;;;;;;;;4982026;28;20092;-75
2023/01/30 05:24:17;;;;;;;11.95;8.32;;;;;;;;;;4981867;28;20057;-74
2023/01/30 05:26:44;;;;;;;10.27;7.93;;;;;;;;;;4981320;28;20112;-75
2023/01/30 05:29:11;;;;;;;12.88;8.57;;;;;;;;;;4997242;28;20483;-75
2023/01/30 05:31:38;;;;;;;13.25;7.97;;;;;;;;;;4981092;28;20068;-75
2023/01/30 05:34:04;;;;;;;9.88;7.03;;;;;;;;;;4980394;28;20073;-76
2023/01/30 05:36:31;;;;;;;11.88;7.68;;;;;;;;;;4980484;28;20050;-75
2023/01/30 05:38:58;;;;;;;12.60;7.75;;;;;;;;;;4979923;28;20053;-75
2023/01/30 05:41:24;;;;;;;10.80;7.22;;;;;;;;;;4980772;28;20057;-75
2023/01/30 05:43:51;;;;;;;11.27;7.50;;;;;;;;;;4996234;28;20495;-75
2023/01/30 05:46:18;;;;;;;10.35;7.43;;;;;;;;;;4980192;28;20057;-73
2023/01/30 05:48:45;;;;;;;9.95;6.90;;;;;;;;;;4981021;28;20054;-77
2023/01/30 05:51:17;;;;;;;10.35;7.63;;;;;;;;;;4981369;28;20050;-78
2023/01/30 05:53:44;;;;;;;11.05;7.28;;;;;;;;;;4981637;28;20061;-75
2023/01/30 05:56:10;;;;;;;10.20;7.40;;;;;;;;;;4980004;28;20049;-76
2023/01/30 05:58:37;;;;;;;12.70;7.88;;;;;;;;;;4979533;28;20053;-76
2023/01/30 06:01:07;;;;;;;11.63;8.25;;;;;;;;;;4979551;28;20056;-76
2023/01/30 06:03:34;;;;;;;11.07;8.25;;;;;;;;;;4980131;28;20053;-75
2023/01/30 06:06:01;;;;;;;12.82;7.60;;;;;;;;;;4964196;28;20137;-75
2023/01/30 06:08:28;;;;;;;13.38;8.13;;;;;;;;;;4979109;28;20073;-74
2023/01/30 06:11:00;;;;;;;11.98;7.45;;;;;;;;;;4980309;28;20049;-75
2023/01/30 06:13:26;;;;;;;12.18;8.77;;;;;;;;;;4979163;28;20069;-74
2023/01/30 06:15:53;;;;;;;12.88;7.72;;;;;;;;;;4979295;28;20062;-75
2023/01/30 06:18:20;;;;;;;10.82;7.07;;;;;;;;;;4969421;28;20132;-77
2023/01/30 06:20:48;;;;;;;11.02;7.50;;;;;;;;;;4963836;28;20057;-75
2023/01/30 06:23:15;;;;;;;11.57;8.15;;;;;;;;;;4996053;28;20050;-78
2023/01/30 06:25:43;;;;;;;10.63;7.05;;;;;;;;;;4980670;28;20050;-77
2023/01/30 06:28:10;;;;;;;13.43;7.78;;;;;;;;;;4974548;28;20046;-77
2023/01/30 06:30:38;;;;;;;11.20;7.80;;;;;;;;;;4960471;28;20050;-77
2023/01/30 06:33:05;;;;;;;9.52;6.63;;;;;;;;;;4977916;28;20108;-78
2023/01/30 06:35:32;;;;;;;11.27;7.80;;;;;;;;;;4987351;28;20050;-77
2023/01/30 06:37:58;;;;;;;11.45;7.80;;;;;;;;;;4981052;28;20410;-77
2023/01/30 06:40:25;;;;;;;12.00;8.10;;;;;;;;;;4980425;28;20072;-77
2023/01/30 06:42:52;;;;;;;11.95;8.23;;;;;;;;;;4979729;28;20057;-77
2023/01/30 06:45:18;;;;;;;12.02;7.75;;;;;;;;;;4989178;28;20498;-77
2023/01/30 06:47:50;;;;;;;10.63;7.70;;;;;;;;;;4964229;28;20461;-77
2023/01/30 06:50:18;;;;;;;10.50;6.90;;;;;;;;;;4980943;28;20058;-78
2023/01/30 06:52:46;;;;;;;12.07;7.63;;;;;;;;;;4980843;28;20050;-78
2023/01/30 06:55:20;;;;;;;11.63;7.85;;;;;;;;;;4975076;28;20050;-78
2023/01/30 06:57:48;;;;;;;10.55;7.32;;;;;;;;;;4980319;28;20061;-78
2023/01/30 07:00:17;;;;;;;11.68;7.57;;;;;;;;;;4981006;28;20057;-77
2023/01/30 07:02:44;;;;;;;10.57;7.35;;;;;;;;;;4978775;28;20168;-77
2023/01/30 07:05:11;;;;;;;12.88;7.78;;;;;;;;;;4978167;28;20042;-77
2023/01/30 07:07:38;;;;;;;10.57;7.47;;;;;;;;;;4979633;28;20046;-77
2023/01/30 07:10:06;;;;;;;11.07;7.80;;;;;;;;;;4963722;28;20509;-77
2023/01/30 07:12:35;;;;;;;13.30;8.88;;;;;;;;;;4978888;28;20486;-77
2023/01/30 07:15:04;;;;;;;10.88;7.05;;;;;;;;;;4974435;28;20046;-77
2023/01/30 07:17:31;;;;;;;10.50;8.02;;;;;;;;;;4942735;28;20530;-76
2023/01/30 07:19:57;;;;;;;10.73;7.97;;;;;;;;;;4973056;28;20054;-76
2023/01/30 07:22:24;;;;;;;11.52;8.07;;;;;;;;;;4972923;28;20487;-75
2023/01/30 07:24:51;;;;;;;13.63;8.25;;;;;;;;;;4977933;28;20418;-77
2023/01/30 07:27:18;;;;;;;10.40;7.10;;;;;;;;;;4993247;28;20089;-75
2023/01/30 07:29:45;;;;;;;10.85;7.15;;;;;;;;;;4993643;28;20104;-76
2023/01/30 07:32:18;;;;;;;10.25;7.30;;;;;;;;;;4960876;28;20046;-77
2023/01/30 07:34:47;;;;;;;13.18;7.72;;;;;;;;;;4974890;28;20093;-76
2023/01/30 07:37:14;;;;;;;10.15;7.07;;;;;;;;;;4956856;28;20089;-76
2023/01/30 07:39:41;;;;;;;12.30;7.22;;;;;;;;;;4957298;28;20054;-76
2023/01/30 07:42:08;;;;;;;10.48;7.43;;;;;;;;;;4957098;28;20423;-77
2023/01/30 07:44:34;;;;;;;10.15;7.20;;;;;;;;;;4960101;28;20053;-77
2023/01/30 07:47:01;;;;;;;12.20;7.78;;;;;;;;;;4992359;28;20060;-77
2023/01/30 07:49:28;;;;;;;13.60;8.45;;;;;;;;;;4976571;28;20809;-77
2023/01/30 07:51:55;;;;;;;12.73;8.18;;;;;;;;;;4961190;28;20092;-77
2023/01/30 07:54:21;;;;;;;12.27;8.55;;;;;;;;;;4993322;28;20045;-76
2023/01/30 07:56:48;;;;;;;13.30;8.02;;;;;;;;;;4991678;28;20060;-75
2023/01/30 07:59:15;;;;;;;10.65;7.20;;;;;;;;;;5008024;28;20050;-76
2023/01/30 08:01:42;;;;;;;13.40;7.18;;;;;;;;;;4990318;28;20053;-77
2023/01/30 08:04:08;;;;;;;16.35;9.05;;;;;;;;;;4992284;28;20058;-77
2023/01/30 08:06:37;;;;;;;14.45;8.50;;;;;;;;;;4989427;28;20057;-76
2023/01/30 08:09:05;;;;;;;13.32;8.48;;;;;;;;;;4957202;28;20548;-77
2023/01/30 08:11:34;;;;;;;14.13;9.05;;;;;;;;;;4956938;28;20160;-76
2023/01/30 08:14:01;;;;;;;12.98;9.32;;;;;;;;;;4976054;28;20065;-76
2023/01/30 08:16:30;;;;;;;13.38;7.95;;;;;;;;;;4956580;28;20147;-77
2023/01/30 08:18:58;;;;;;;13.50;7.88;;;;;;;;;;4959218;28;20161;-76
2023/01/30 08:21:35;;;;;;;15.77;7.70;;;;;;;;;;4974812;28;20132;-77
2023/01/30 08:24:01;;;;;;;13.68;8.98;;;;;;;;;;4976794;28;20498;-78
2023/01/30 08:26:28;;;;;;;10.50;6.85;;;;;;;;;;4961986;28;20085;-76
2023/01/30 08:28:55;;;;;;;9.13;5.88;;;;;;;;;;4959605;28;20098;-76
2023/01/30 08:31:22;;;;;;;9.43;6.65;;;;;;;;;;4964202;28;20532;-77
2023/01/30 08:33:48;;;;;;;14.50;8.82;;;;;;;;;;4975468;28;20100;-77
2023/01/30 08:36:15;;;;;;;10.88;7.57;;;;;;;;;;4957146;28;20486;-77
2023/01/30 08:38:42;;;;;;;11.70;6.72;;;;;;;;;;4959763;28;20050;-76
2023/01/30 08:41:09;;;;;;;9.40;6.43;;;;;;;;;;4955772;28;20433;-77
2023/01/30 08:43:36;;;;;;;10.40;7.03;;;;;;;;;;4973727;28;20050;-76
2023/01/30 08:46:03;;;;;;;9.48;6.43;;;;;;;;;;4958958;28;20412;-76
2023/01/30 08:48:30;;;;;;;10.93;7.22;;;;;;;;;;4974778;28;20312;-77
2023/01/30 08:51:14;;;;;;;9.07;6.32;;;;;;;;;;4980476;28;20410;-76
2023/01/30 08:53:41;;;;;;;9.93;5.97;;;;;;;;;;4990332;28;20052;-77
2023/01/30 08:56:08;;;;;;;12.27;7.45;;;;;;;;;;4959030;28;20057;-77
2023/01/30 08:58:34;;;;;;;10.52;6.30;;;;;;;;;;4960210;28;20057;-77
2023/01/30 09:01:05;;;;;;;12.55;6.20;;;;;;;;;;4960295;28;20076;-76
2023/01/30 09:03:32;;;;;;;9.15;6.35;;;;;;;;;;4975893;28;20056;-76
2023/01/30 09:05:59;;;;;;;8.73;5.60;;;;;;;;;;4992355;28;20509;-76
2023/01/30 09:08:26;;;;;;;8.70;6.18;;;;;;;;;;4992231;28;20081;-76
2023/01/30 09:10:59;;;;;;;9.05;5.70;;;;;;;;;;4992213;28;20058;-76
2023/01/30 09:13:26;;;;;;;8.70;5.88;;;;;;;;;;5008016;28;20046;-76
2023/01/30 09:15:53;;;;;;;8.95;5.60;;;;;;;;;;4991734;28;20061;-76
2023/01/30 09:18:20;;;;;;;7.40;5.35;;;;;;;;;;4975712;28;20050;-76
2023/01/30 09:20:47;;;;;;;8.98;5.78;;;;;;;;;;4960062;28;20349;-76
2023/01/30 09:23:13;;;;;;;9.27;5.75;;;;;;;;;;4975589;28;20049;-76
2023/01/30 09:25:40;;;;;;;9.20;5.40;;;;;;;;;;4959999;28;20054;-76
2023/01/30 09:28:07;;;;;;;16.08;7.15;;;;;;;;;;4991837;28;20049;-76
2023/01/30 09:30:34;;;;;;;8.88;6.05;;;;;;;;;;4960182;28;20485;-75
2023/01/30 09:33:01;;;;;;;21.30;10.13;;;;;;;;;;4991361;28;20065;-76
2023/01/30 09:35:27;;;;;;;21.52;9.27;;;;;;;;;;4991713;28;20077;-76
2023/01/30 09:37:54;;;;;;;9.68;5.72;;;;;;;;;;4959737;28;20053;-76
2023/01/30 09:40:26;;;;;;;8.35;5.60;;;;;;;;;;4975911;28;20050;-76
2023/01/30 09:43:05;;;;;;;9.10;5.38;;;;;;;;;;4991937;28;20045;-75
2023/01/30 09:45:35;;;;;;;7.85;5.15;;;;;;;;;;4991798;28;20042;-76
2023/01/30 09:48:06;;;;;;;7.63;5.63;;;;;;;;;;4993021;28;20058;-76
2023/01/30 09:50:58;;;;;;;7.85;5.07;;;;;;;;;;4979782;28;20054;-75
2023/01/30 09:53:55;;;;;;;9.38;5.68;;;;;;;;;;4987143;28;20105;-76
2023/01/30 09:56:21;;;;;;;9.98;6.13;;;;;;;;;;4979314;28;20130;-76
2023/01/30 09:58:54;;;;;;;9.35;5.65;;;;;;;;;;4959701;28;20062;-76
2023/01/30 10:01:58;;;;;;;8.80;5.33;;;;;;;;;;4976241;28;20051;-76
2023/01/30 10:04:43;;;;;;;8.02;4.38;;;;;;;;;;4982377;28;20297;-76
2023/01/30 10:07:39;;;;;;;9.30;5.28;;;;;;;;;;4997235;28;20050;-76
2023/01/30 10:10:10;;;;;;;7.50;5.10;;;;;;;;;;4995171;28;20442;-76
2023/01/30 10:12:55;;;;;;;7.32;5.30;;;;;;;;;;4994960;28;20053;-76
2023/01/30 10:15:33;;;;;;;10.38;5.88;;;;;;;;;;4994767;28;20053;-76
2023/01/30 10:18:42;;;;;;;8.20;4.88;;;;;;;;;;4994635;28;20050;-76
2023/01/30 10:22:01;;;;;;;6.05;4.10;;;;;;;;;;4978377;28;20592;-76
2023/01/30 10:24:39;;;;;;;4.70;3.53;;;;;;;;;;4972888;28;20602;-76
2023/01/30 10:27:11;;;;;;;5.13;3.35;;;;;;;;;;4975471;28;20058;-76
2023/01/30 10:29:40;;;;;;;3.75;3.00;;;;;;;;;;4991315;28;20062;-76
2023/01/30 10:32:24;;;;;;;4.47;3.05;;;;;;;;;;4975532;28;20495;-76
2023/01/30 10:34:53;;;;;;;5.88;2.78;;;;;;;;;;4994985;28;20042;-76
2023/01/30 10:37:31;;;;;;;4.13;2.67;;;;;;;;;;4994221;28;20083;-76
2023/01/30 10:40:19;;;;;;;3.53;2.70;;;;;;;;;;4978496;28;20140;-76
2023/01/30 10:43:08;;;;;;;3.55;2.85;;;;;;;;;;4994866;28;20050;-76
2023/01/30 10:45:56;;;;;;;3.47;2.30;;;;;;;;;;4994366;28;20046;-75
2023/01/30 10:49:04;;;;;;;5.13;3.10;;;;;;;;;;4994276;28;20546;-76
2023/01/30 10:52:01;;;;;;;5.47;2.75;;;;;;;;;;4986678;28;20052;-76
2023/01/30 10:54:39;;;;;;;2.95;2.30;;;;;;;;;;4994898;28;20107;-76
2023/01/30 10:57:21;;;;;;;4.00;2.83;;;;;;;;;;4978606;28;20046;-75
2023/01/30 11:00:03;;;;;;;3.83;2.63;;;;;;;;;;4977391;28;20480;-76
2023/01/30 11:02:52;;;;;;;4.22;2.53;;;;;;;;;;4979289;28;20137;-76
2023/01/30 11:05:24;;;;;;;6.05;2.90;;;;;;;;;;4978254;28;20053;-76
2023/01/30 11:07:50;;;;;;;2.75;2.33;;;;;;;;;;4962126;28;20056;-76
2023/01/30 11:10:20;;;;;;;4.47;2.33;;;;;;;;;;4978200;28;20046;-76
2023/01/30 11:12:48;;;;;;;4.30;2.28;;;;;;;;;;4962372;28;20050;-75
2023/01/30 11:15:15;;;;;;;3.55;2.00;;;;;;;;;;4977762;28;20050;-76
2023/01/30 11:17:44;;;;;;;2.08;1.73;;;;;;;;;;4978194;28;20058;-76
2023/01/30 11:20:18;;;;;;;2.17;1.80;;;;;;;;;;4978105;28;20050;-76
2023/01/30 11:22:50;;;;;;;2.05;1.48;;;;;;;;;;4978016;28;20495;-76
2023/01/30 11:25:23;;;;;;;2.13;1.65;;;;;;;;;;4994017;28;20096;-76
2023/01/30 11:28:00;;;;;;;5.45;2.78;;;;;;;;;;4978129;28;20435;-76
2023/01/30 11:30:34;;;;;;;5.45;2.83;;;;;;;;;;4994251;28;20172;-75
2023/01/30 11:33:16;;;;;;;4.35;2.60;;;;;;;;;;4994294;28;20050;-76
2023/01/30 11:36:00;;;;;;;2.25;1.40;;;;;;;;;;4994124;28;20527;-76
2023/01/30 11:38:34;;;;;;;2.42;1.60;;;;;;;;;;4993519;28;20077;-77
2023/01/30 11:41:10;;;;;;;2.15;1.48;;;;;;;;;;4993680;28;20056;-76
2023/01/30 11:43:40;;;;;;;1.88;1.63;;;;;;;;;;4990071;28;20077;-75
2023/01/30 11:46:08;;;;;;;2.30;1.33;;;;;;;;;;4943486;28;20050;-75
2023/01/30 11:48:39;;;;;;;2.72;2.03;;;;;;;;;;4942512;28;20133;-76
2023/01/30 11:51:25;;;;;;;2.80;1.92;;;;;;;;;;4950908;28;20065;-76
2023/01/30 11:53:58;;;;;;;2.65;1.90;;;;;;;;;;4999845;28;20053;-77
2023/01/30 11:56:39;;;;;;;2.50;2.03;;;;;;;;;;5009339;28;20085;-74
2023/01/30 11:59:30;;;;;;;3.13;1.92;;;;;;;;;;4992936;28;20351;-74
2023/01/30 12:02:04;;;;;;;3.15;2.08;;;;;;;;;;4990757;28;20056;-73
2023/01/30 12:04:30;;;;;;;;;;;;;;;;;;4992929;28;20057;-78
2023/01/30 12:07:18;;;;;;;6.43;3.22;;;;;;;;;;4976762;28;20484;-77
2023/01/30 12:09:45;;;;;;;3.35;2.60;;;;;;;;;;4993958;28;20049;-77
2023/01/30 12:12:45;;;;;;;4.30;2.83;;;;;;;;;;4992818;28;20050;-77
2023/01/30 12:15:31;;;;;;;3.72;2.58;;;;;;;;;;4956735;28;20051;-77
2023/01/30 12:18:00;;;;;;;3.33;2.65;;;;;;;;;;4965007;28;20045;-76
2023/01/30 12:20:56;;;;;;;4.47;3.00;;;;;;;;;;4987790;28;20045;-76
2023/01/30 12:23:45;;;;;;;4.97;3.40;;;;;;;;;;5014261;28;20056;-76
2023/01/30 12:26:25;;;;;;;5.53;3.50;;;;;;;;;;4990138;28;20042;-76
2023/01/30 12:29:16;;;;;;;4.60;3.30;;;;;;;;;;4976931;28;20050;-76
2023/01/30 12:32:04;;;;;;;5.35;3.53;;;;;;;;;;5002439;28;20076;-76
2023/01/30 12:34:31;;;;;;;6.72;3.38;;;;;;;;;;5001299;28;20057;-76
2023/01/30 12:37:04;;;;;;;5.13;3.58;;;;;;;;;;4978279;28;20073;-76
2023/01/30 12:39:49;;;;;;;6.20;3.67;;;;;;;;;;4992233;28;20061;-76
2023/01/30 12:42:38;;;;;;;5.03;3.47;;;;;;;;;;4992548;28;20483;-76
2023/01/30 12:45:46;;;;;;;4.95;3.80;;;;;;;;;;4991618;28;20053;-77
2023/01/30 12:48:37;;;;;;;4.93;3.50;;;;;;;;;;4957900;28;20089;-76
2023/01/30 12:52:05;;;;;;;6.35;4.13;;;;;;;;;;4968632;28;20049;-76
2023/01/30 12:54:41;;;;;;;5.03;3.67;;;;;;;;;;4929521;29;20172;-77
2023/01/30 12:57:13;;;;;;;6.15;3.70;;;;;;;;;;4914173;29;20047;-75
2023/01/30 13:00:02;;;;;;;6.00;3.95;;;;;;;;;;4933924;28;20050;-76
2023/01/30 13:03:03;;;;;;;5.57;3.80;;;;;;;;;;4957399;28;20113;-76
2023/01/30 13:05:48;;;;;;;10.30;4.82;;;;;;;;;;4968957;28;20096;-76
2023/01/30 13:08:33;;;;;;;5.15;3.78;;;;;;;;;;4991834;28;20072;-76
2023/01/30 13:11:19;;;;;;;6.57;4.10;;;;;;;;;;4992024;28;20062;-76
2023/01/30 13:14:14;;;;;;;6.28;4.22;;;;;;;;;;4993945;28;20056;-76
2023/01/30 13:16:59;;;;;;;8.43;5.00;;;;;;;;;;4973101;28;20054;-76
2023/01/30 13:19:52;;;;;;;8.32;5.00;;;;;;;;;;4976874;28;20052;-76
2023/01/30 13:22:38;;;;;;;4.90;3.80;;;;;;;;;;4986180;28;20053;-76
2023/01/30 13:25:11;;;;;;;5.32;3.75;;;;;;;;;;4980357;28;20076;-77
2023/01/30 13:27:38;;;;;;;5.47;3.58;;;;;;;;;;4995013;28;20054;-76
2023/01/30 13:30:08;;;;;;;6.47;3.47;;;;;;;;;;4994748;28;20084;-76
2023/01/30 13:32:43;;;;;;;4.85;3.45;;;;;;;;;;4979939;28;20398;-76
2023/01/30 13:35:36;;;;;;;4.20;2.72;;;;;;;;;;4978543;28;20050;-76
2023/01/30 13:38:03;;;;;;;2.90;2.08;;;;;;;;;;4994801;28;20058;-76
2023/01/30 13:40:37;;;;;;;3.60;2.42;;;;;;;;;;5012565;28;20057;-76
2023/01/30 13:43:21;;;;;;;4.07;2.15;;;;;;;;;;5006137;28;20050;-75
2023/01/30 13:45:48;;;;;;;2.08;1.70;;;;;;;;;;5010400;28;20048;-75
2023/01/30 13:48:22;;;;;;;4.50;2.42;;;;;;;;;;5011975;28;20050;-76
2023/01/30 13:51:26;;;;;;;2.17;1.80;;;;;;;;;;5012542;28;20068;-76
2023/01/30 13:54:08;;;;;;;2.25;1.70;;;;;;;;;;5010025;28;20512;-76
2023/01/30 13:56:45;;;;;;;2.20;1.60;;;;;;;;;;5025904;28;20038;-75
2023/01/30 13:59:34;;;;;;;1.80;1.55;;;;;;;;;;5010151;28;20072;-75
2023/01/30 14:02:09;;;;;;;2.25;1.80;;;;;;;;;;5017474;28;20529;-75
2023/01/30 14:04:46;;;;;;;3.47;1.77;;;;;;;;;;4992128;28;20057;-73
2023/01/30 14:07:21;;;;;;;1.73;1.58;;;;;;;;;;4983384;28;20056;-74
2023/01/30 14:10:24;;;;;;;2.97;2.33;;;;;;;;;;4983132;28;20057;-76
2023/01/30 14:12:52;;;;;;;2.50;2.30;;;;;;;;;;4989241;28;20069;-75
2023/01/30 14:15:27;;;;;;;4.32;2.40;;;;;;;;;;4967836;28;20578;-76
2023/01/30 14:18:01;;;;;;;4.53;2.35;;;;;;;;;;4980764;28;20060;-75
2023/01/30 14:20:28;;;;;;;;;;;;;;;;;;4995730;28;20061;-75
2023/01/30 14:23:03;;;;;;;5.13;2.92;;;;;;;;;;4976385;28;20293;-75
2023/01/30 14:25:35;;;;;;;3.63;2.47;;;;;;;;;;4976470;28;20434;-74
2023/01/30 14:28:06;;;;;;;2.92;2.30;;;;;;;;;;4961127;28;20088;-75
2023/01/30 14:30:52;;;;;;;4.18;2.30;;;;;;;;;;5008027;28;20112;-75
2023/01/30 14:33:22;;;;;;;4.32;2.10;;;;;;;;;;4975643;28;20050;-75
2023/01/30 14:36:01;;;;;;;2.90;2.15;;;;;;;;;;4991951;28;20054;-75
2023/01/30 14:38:29;;;;;;;2.25;2.03;;;;;;;;;;4990732;28;20058;-75
2023/01/30 14:40:59;;;;;;;3.55;1.83;;;;;;;;;;4975131;28;20054;-75
2023/01/30 14:43:41;;;;;;;2.88;1.70;;;;;;;;;;4992413;28;20133;-76
2023/01/30 14:46:31;;;;;;;3.90;1.98;;;;;;;;;;4976753;28;20042;-76
2023/01/30 14:49:04;;;;;;;2.63;1.67;;;;;;;;;;5007836;28;20050;-75
2023/01/30 14:51:41;;;;;;;3.08;2.20;;;;;;;;;;4961519;28;20050;-74
2023/01/30 14:54:11;;;;;;;4.10;2.42;;;;;;;;;;4987340;28;20042;-75
2023/01/30 14:56:54;;;;;;;4.00;2.40;;;;;;;;;;4984249;28;20100;-75
2023/01/30 14:59:20;;;;;;;4.97;2.35;;;;;;;;;;4991176;28;20069;-75
2023/01/30 15:02:20;;;;;;;8.65;4.32;;;;;;;;;;4991028;28;20068;-75
2023/01/30 15:05:10;;;;;;;7.43;3.83;;;;;;;;;;4954651;28;20498;-75
2023/01/30 15:07:40;;;;;;;6.88;3.33;;;;;;;;;;4974318;28;20058;-75
2023/01/30 15:10:37;;;;;;;6.45;3.30;;;;;;;;;;4969307;28;20049;-76
2023/01/30 15:13:29;;;;;;;5.75;3.42;;;;;;;;;;4983811;28;20061;-76